sensor_id;sensor_type;location;lat;lon;timestamp;temperature;humidity
1716;DHT22;855;48.824;9.220;2023-12-29T00:06:44;11.50;86.50
1716;DHT22;855;48.824;9.220;2023-12-29T00:09:11;11.50;86.50
1716;DHT22;855;48.824;9.220;2023-12-29T00:14:05;11.50;86.40
1716;DHT22;855;48.824;9.220;2023-12-29T00:16:34;11.50;86.00
1716;DHT22;855;48.824;9.220;2023-12-29T00:26:22;11.50;85.30
1716;DHT22;855;48.824;9.220;2023-12-29T00:31:17;11.50;84.80
1716;DHT22;855;48.824;9.220;2023-12-29T00:33:45;11.60;84.80
1716;DHT22;855;48.824;9.220;2023-12-29T00:36:15;11.50;84.80
1716;DHT22;855;48.824;9.220;2023-12-29T00:38:42;11.50;84.50
1716;DHT22;855;48.824;9.220;2023-12-29T00:41:09;11.60;84.50
1716;DHT22;855;48.824;9.220;2023-12-29T00:43:36;11.70;84.10
1716;DHT22;855;48.824;9.220;2023-12-29T00:46:03;11.70;84.00
1716;DHT22;855;48.824;9.220;2023-12-29T00:51:00;11.70;83.70
1716;DHT22;855;48.824;9.220;2023-12-29T00:53:27;11.80;83.40
1716;DHT22;855;48.824;9.220;2023-12-29T00:58:21;11.70;83.60
1716;DHT22;855;48.824;9.220;2023-12-29T01:00:48;11.80;83.30
1716;DHT22;855;48.824;9.220;2023-12-29T01:03:15;11.80;83.20
1716;DHT22;855;48.824;9.220;2023-12-29T01:08:10;11.80;83.20
1716;DHT22;855;48.824;9.220;2023-12-29T01:15:31;11.90;83.20
1716;DHT22;855;48.824;9.220;2023-12-29T01:22:52;11.80;82.50
1716;DHT22;855;48.824;9.220;2023-12-29T01:25:21;11.80;83.00
1716;DHT22;855;48.824;9.220;2023-12-29T01:27:47;11.90;82.70
1716;DHT22;855;48.824;9.220;2023-12-29T01:32:41;11.90;82.30
1716;DHT22;855;48.824;9.220;2023-12-29T01:35:08;11.90;82.30
1716;DHT22;855;48.824;9.220;2023-12-29T01:37:35;12.00;81.60
1716;DHT22;855;48.824;9.220;2023-12-29T01:40:02;11.90;81.60
1716;DHT22;855;48.824;9.220;2023-12-29T01:42:30;11.90;81.30
1716;DHT22;855;48.824;9.220;2023-12-29T01:44:57;12.00;81.30
1716;DHT22;855;48.824;9.220;2023-12-29T01:47:24;12.00;81.30
1716;DHT22;855;48.824;9.220;2023-12-29T01:49:51;11.90;81.50
1716;DHT22;855;48.824;9.220;2023-12-29T01:52:18;11.80;81.70
1716;DHT22;855;48.824;9.220;2023-12-29T01:54:47;11.80;82.00
1716;DHT22;855;48.824;9.220;2023-12-29T01:57:15;11.80;81.70
1716;DHT22;855;48.824;9.220;2023-12-29T01:59:43;11.80;82.00
1716;DHT22;855;48.824;9.220;2023-12-29T02:02:11;11.80;82.00
1716;DHT22;855;48.824;9.220;2023-12-29T02:04:38;11.90;81.90
1716;DHT22;855;48.824;9.220;2023-12-29T02:07:06;11.80;81.60
1716;DHT22;855;48.824;9.220;2023-12-29T02:09:34;11.80;81.70
1716;DHT22;855;48.824;9.220;2023-12-29T02:12:01;11.80;82.00
1716;DHT22;855;48.824;9.220;2023-12-29T02:14:28;11.80;82.00
1716;DHT22;855;48.824;9.220;2023-12-29T02:17:01;11.80;82.30
1716;DHT22;855;48.824;9.220;2023-12-29T02:19:37;11.80;82.30
1716;DHT22;855;48.824;9.220;2023-12-29T02:22:06;11.70;82.30
1716;DHT22;855;48.824;9.220;2023-12-29T02:24:33;11.70;82.50
1716;DHT22;855;48.824;9.220;2023-12-29T02:27:11;11.80;82.50
1716;DHT22;855;48.824;9.220;2023-12-29T02:29:41;11.80;82.40
1716;DHT22;855;48.824;9.220;2023-12-29T02:32:13;11.90;82.40
1716;DHT22;855;48.824;9.220;2023-12-29T02:34:43;11.90;82.30
1716;DHT22;855;48.824;9.220;2023-12-29T02:37:12;11.90;82.40
1716;DHT22;855;48.824;9.220;2023-12-29T02:39:39;11.80;82.40
1716;DHT22;855;48.824;9.220;2023-12-29T02:42:08;11.80;82.70
1716;DHT22;855;48.824;9.220;2023-12-29T02:47:02;11.80;82.50
1716;DHT22;855;48.824;9.220;2023-12-29T02:56:51;11.80;82.10
1716;DHT22;855;48.824;9.220;2023-12-29T02:59:19;11.80;82.40
1716;DHT22;855;48.824;9.220;2023-12-29T03:06:40;11.80;82.50
1716;DHT22;855;48.824;9.220;2023-12-29T03:09:07;11.80;83.20
1716;DHT22;855;48.824;9.220;2023-12-29T03:16:30;11.70;84.10
1716;DHT22;855;48.824;9.220;2023-12-29T03:33:41;11.70;84.80
1716;DHT22;855;48.824;9.220;2023-12-29T03:36:09;11.60;85.00
1716;DHT22;855;48.824;9.220;2023-12-29T03:41:03;11.70;84.80
1716;DHT22;855;48.824;9.220;2023-12-29T03:50:53;11.50;85.70
1716;DHT22;855;48.824;9.220;2023-12-29T04:08:04;11.70;85.70
1716;DHT22;855;48.824;9.220;2023-12-29T04:15:26;11.70;85.60
1716;DHT22;855;48.824;9.220;2023-12-29T04:22:48;11.50;87.40
1716;DHT22;855;48.824;9.220;2023-12-29T04:25:16;11.50;87.50
1716;DHT22;855;48.824;9.220;2023-12-29T04:30:10;11.50;87.70
1716;DHT22;855;48.824;9.220;2023-12-29T04:35:05;11.40;88.10
1716;DHT22;855;48.824;9.220;2023-12-29T04:37:32;11.30;88.50
1716;DHT22;855;48.824;9.220;2023-12-29T04:42:27;11.30;89.30
1716;DHT22;855;48.824;9.220;2023-12-29T04:44:54;11.30;89.40
1716;DHT22;855;48.824;9.220;2023-12-29T04:59:40;11.40;89.30
1716;DHT22;855;48.824;9.220;2023-12-29T05:04:34;11.40;89.30
1716;DHT22;855;48.824;9.220;2023-12-29T05:16:51;11.40;89.50
1716;DHT22;855;48.824;9.220;2023-12-29T05:19:18;11.50;89.40
1716;DHT22;855;48.824;9.220;2023-12-29T05:24:12;11.60;89.00
1716;DHT22;855;48.824;9.220;2023-12-29T05:34:01;11.50;90.10
1716;DHT22;855;48.824;9.220;2023-12-29T05:38:56;11.50;90.50
1716;DHT22;855;48.824;9.220;2023-12-29T05:41:23;11.50;90.50
1716;DHT22;855;48.824;9.220;2023-12-29T05:43:50;11.60;90.60
1716;DHT22;855;48.824;9.220;2023-12-29T05:51:13;11.50;91.10
1716;DHT22;855;48.824;9.220;2023-12-29T05:53:40;11.60;91.10
1716;DHT22;855;48.824;9.220;2023-12-29T05:56:07;11.70;91.10
1716;DHT22;855;48.824;9.220;2023-12-29T05:58:34;11.70;91.00
1716;DHT22;855;48.824;9.220;2023-12-29T06:01:01;11.70;91.20
1716;DHT22;855;48.824;9.220;2023-12-29T06:05:55;11.50;91.70
1716;DHT22;855;48.824;9.220;2023-12-29T06:08:23;11.60;91.70
1716;DHT22;855;48.824;9.220;2023-12-29T06:13:18;11.60;91.80
1716;DHT22;855;48.824;9.220;2023-12-29T06:15:45;11.60;91.80
1716;DHT22;855;48.824;9.220;2023-12-29T06:18:12;11.70;91.70
1716;DHT22;855;48.824;9.220;2023-12-29T06:20:39;11.60;91.80
1716;DHT22;855;48.824;9.220;2023-12-29T06:25:34;11.50;92.40
1716;DHT22;855;48.824;9.220;2023-12-29T06:30:32;11.50;92.20
1716;DHT22;855;48.824;9.220;2023-12-29T06:32:58;11.40;92.00
1716;DHT22;855;48.824;9.220;2023-12-29T06:37:53;11.50;92.00
1716;DHT22;855;48.824;9.220;2023-12-29T06:40:19;11.40;92.00
1716;DHT22;855;48.824;9.220;2023-12-29T06:42:48;11.20;92.40
1716;DHT22;855;48.824;9.220;2023-12-29T06:45:15;11.10;92.80
1716;DHT22;855;48.824;9.220;2023-12-29T06:50:09;11.10;93.00
1716;DHT22;855;48.824;9.220;2023-12-29T06:52:38;10.90;93.60
1716;DHT22;855;48.824;9.220;2023-12-29T06:55:06;10.90;93.70
1716;DHT22;855;48.824;9.220;2023-12-29T06:57:33;10.80;93.80
1716;DHT22;855;48.824;9.220;2023-12-29T07:00:01;10.90;94.00
1716;DHT22;855;48.824;9.220;2023-12-29T07:02:28;10.90;94.00
1716;DHT22;855;48.824;9.220;2023-12-29T07:04:55;10.90;94.00
1716;DHT22;855;48.824;9.220;2023-12-29T07:07:22;10.90;94.00
1716;DHT22;855;48.824;9.220;2023-12-29T07:09:49;11.00;93.90
1716;DHT22;855;48.824;9.220;2023-12-29T07:14:43;11.00;94.00
1716;DHT22;855;48.824;9.220;2023-12-29T07:17:12;11.00;94.10
1716;DHT22;855;48.824;9.220;2023-12-29T07:22:06;11.00;94.10
1716;DHT22;855;48.824;9.220;2023-12-29T07:24:34;11.10;94.00
1716;DHT22;855;48.824;9.220;2023-12-29T07:27:00;11.10;94.00
1716;DHT22;855;48.824;9.220;2023-12-29T07:29:27;11.00;94.10
1716;DHT22;855;48.824;9.220;2023-12-29T07:31:54;11.00;94.10
1716;DHT22;855;48.824;9.220;2023-12-29T07:34:23;11.10;94.20
1716;DHT22;855;48.824;9.220;2023-12-29T07:36:49;11.10;94.20
1716;DHT22;855;48.824;9.220;2023-12-29T07:39:18;11.20;94.20
1716;DHT22;855;48.824;9.220;2023-12-29T07:41:44;11.10;94.10
1716;DHT22;855;48.824;9.220;2023-12-29T07:46:41;11.20;94.10
1716;DHT22;855;48.824;9.220;2023-12-29T07:49:08;11.20;94.20
1716;DHT22;855;48.824;9.220;2023-12-29T07:51:39;11.20;94.20
1716;DHT22;855;48.824;9.220;2023-12-29T07:54:06;11.20;94.20
1716;DHT22;855;48.824;9.220;2023-12-29T07:56:33;11.30;93.90
1716;DHT22;855;48.824;9.220;2023-12-29T08:07:36;11.40;93.30
1716;DHT22;855;48.824;9.220;2023-12-29T08:10:04;11.40;93.30
1716;DHT22;855;48.824;9.220;2023-12-29T08:12:30;11.40;93.30
1716;DHT22;855;48.824;9.220;2023-12-29T08:14:59;11.50;93.20
1716;DHT22;855;48.824;9.220;2023-12-29T08:17:25;11.50;93.10
1716;DHT22;855;48.824;9.220;2023-12-29T08:19:53;11.50;93.10
1716;DHT22;855;48.824;9.220;2023-12-29T08:22:20;11.50;93.10
1716;DHT22;855;48.824;9.220;2023-12-29T08:24:48;11.50;93.10
1716;DHT22;855;48.824;9.220;2023-12-29T08:27:22;11.50;93.00
1716;DHT22;855;48.824;9.220;2023-12-29T08:39:41;11.60;92.80
1716;DHT22;855;48.824;9.220;2023-12-29T08:42:09;11.70;92.80
1716;DHT22;855;48.824;9.220;2023-12-29T08:47:03;11.70;92.50
1716;DHT22;855;48.824;9.220;2023-12-29T08:49:33;11.70;92.50
1716;DHT22;855;48.824;9.220;2023-12-29T08:52:00;11.70;92.60
1716;DHT22;855;48.824;9.220;2023-12-29T08:56:54;11.90;92.60
1716;DHT22;855;48.824;9.220;2023-12-29T08:59:22;11.90;92.60
1716;DHT22;855;48.824;9.220;2023-12-29T09:01:49;12.00;92.50
1716;DHT22;855;48.824;9.220;2023-12-29T09:06:43;12.00;92.10
1716;DHT22;855;48.824;9.220;2023-12-29T09:11:38;12.00;91.80
1716;DHT22;855;48.824;9.220;2023-12-29T09:14:05;12.10;92.00
1716;DHT22;855;48.824;9.220;2023-12-29T09:16:35;12.00;91.90
1716;DHT22;855;48.824;9.220;2023-12-29T09:19:02;12.00;91.80
1716;DHT22;855;48.824;9.220;2023-12-29T09:26:24;12.20;91.60
1716;DHT22;855;48.824;9.220;2023-12-29T09:28:51;12.20;91.10
1716;DHT22;855;48.824;9.220;2023-12-29T09:31:18;12.30;90.90
1716;DHT22;855;48.824;9.220;2023-12-29T09:33:46;12.30;91.10
1716;DHT22;855;48.824;9.220;2023-12-29T09:41:11;12.40;90.80
1716;DHT22;855;48.824;9.220;2023-12-29T09:43:40;12.40;90.80
1716;DHT22;855;48.824;9.220;2023-12-29T09:46:08;12.40;90.60
1716;DHT22;855;48.824;9.220;2023-12-29T09:48:36;12.40;90.60
1716;DHT22;855;48.824;9.220;2023-12-29T09:51:05;12.40;90.60
1716;DHT22;855;48.824;9.220;2023-12-29T09:53:34;12.60;90.20
1716;DHT22;855;48.824;9.220;2023-12-29T09:56:03;12.60;89.80
1716;DHT22;855;48.824;9.220;2023-12-29T09:58:32;12.60;90.10
1716;DHT22;855;48.824;9.220;2023-12-29T10:01:00;12.70;90.10
1716;DHT22;855;48.824;9.220;2023-12-29T10:03:28;12.70;89.80
1716;DHT22;855;48.824;9.220;2023-12-29T10:05:56;12.80;89.40
1716;DHT22;855;48.824;9.220;2023-12-29T10:08:29;12.90;89.30
1716;DHT22;855;48.824;9.220;2023-12-29T10:11:00;13.00;88.30
1716;DHT22;855;48.824;9.220;2023-12-29T10:13:29;13.10;88.20
1716;DHT22;855;48.824;9.220;2023-12-29T10:16:08;13.10;87.50
1716;DHT22;855;48.824;9.220;2023-12-29T10:18:45;13.20;87.30
1716;DHT22;855;48.824;9.220;2023-12-29T10:21:26;13.20;87.00
1716;DHT22;855;48.824;9.220;2023-12-29T10:23:58;13.20;87.10
1716;DHT22;855;48.824;9.220;2023-12-29T10:26:28;13.30;87.30
1716;DHT22;855;48.824;9.220;2023-12-29T10:28:55;13.30;87.00
1716;DHT22;855;48.824;9.220;2023-12-29T10:31:23;13.40;86.70
1716;DHT22;855;48.824;9.220;2023-12-29T10:41:13;13.40;85.60
1716;DHT22;855;48.824;9.220;2023-12-29T10:43:41;13.40;85.30
1716;DHT22;855;48.824;9.220;2023-12-29T10:46:09;13.30;84.60
1716;DHT22;855;48.824;9.220;2023-12-29T10:48:36;13.50;85.20
1716;DHT22;855;48.824;9.220;2023-12-29T10:51:03;13.60;84.20
1716;DHT22;855;48.824;9.220;2023-12-29T10:53:32;13.60;83.30
1716;DHT22;855;48.824;9.220;2023-12-29T10:55:59;13.50;83.30
1716;DHT22;855;48.824;9.220;2023-12-29T10:58:28;13.50;82.90
1716;DHT22;855;48.824;9.220;2023-12-29T11:00:55;13.50;83.00
1716;DHT22;855;48.824;9.220;2023-12-29T11:03:23;13.40;82.90
1716;DHT22;855;48.824;9.220;2023-12-29T11:05:50;13.50;82.70
1716;DHT22;855;48.824;9.220;2023-12-29T11:08:18;13.50;82.10
1716;DHT22;855;48.824;9.220;2023-12-29T11:10:47;13.50;82.00
1716;DHT22;855;48.824;9.220;2023-12-29T11:13:14;13.50;82.10
1716;DHT22;855;48.824;9.220;2023-12-29T11:15:43;13.40;81.50
1716;DHT22;855;48.824;9.220;2023-12-29T11:18:13;13.40;81.60
1716;DHT22;855;48.824;9.220;2023-12-29T11:20:41;13.40;82.10
1716;DHT22;855;48.824;9.220;2023-12-29T11:23:09;13.40;82.40
1716;DHT22;855;48.824;9.220;2023-12-29T11:25:37;13.40;82.10
1716;DHT22;855;48.824;9.220;2023-12-29T11:28:06;13.50;82.00
1716;DHT22;855;48.824;9.220;2023-12-29T11:33:08;13.60;80.80
1716;DHT22;855;48.824;9.220;2023-12-29T11:35:39;13.60;81.10
1716;DHT22;855;48.824;9.220;2023-12-29T11:38:31;13.60;80.30
1716;DHT22;855;48.824;9.220;2023-12-29T11:41:05;13.70;79.90
1716;DHT22;855;48.824;9.220;2023-12-29T11:43:35;13.70;79.00
1716;DHT22;855;48.824;9.220;2023-12-29T11:46:02;13.70;78.70
1716;DHT22;855;48.824;9.220;2023-12-29T11:48:56;13.70;78.80
1716;DHT22;855;48.824;9.220;2023-12-29T11:51:31;13.70;78.60
1716;DHT22;855;48.824;9.220;2023-12-29T11:53:59;13.80;78.30
1716;DHT22;855;48.824;9.220;2023-12-29T11:56:31;13.80;77.40
1716;DHT22;855;48.824;9.220;2023-12-29T11:59:12;13.80;77.50
1716;DHT22;855;48.824;9.220;2023-12-29T12:01:39;13.80;77.20
1716;DHT22;855;48.824;9.220;2023-12-29T12:04:35;13.80;77.00
1716;DHT22;855;48.824;9.220;2023-12-29T12:07:04;13.80;77.00
1716;DHT22;855;48.824;9.220;2023-12-29T12:12:01;13.90;76.80
1716;DHT22;855;48.824;9.220;2023-12-29T12:14:48;14.00;76.00
1716;DHT22;855;48.824;9.220;2023-12-29T12:17:31;14.10;75.50
1716;DHT22;855;48.824;9.220;2023-12-29T12:20:02;14.30;74.70
1716;DHT22;855;48.824;9.220;2023-12-29T12:22:30;14.20;74.20
1716;DHT22;855;48.824;9.220;2023-12-29T12:24:57;14.30;74.20
1716;DHT22;855;48.824;9.220;2023-12-29T12:27:25;14.30;73.80
1716;DHT22;855;48.824;9.220;2023-12-29T12:29:56;14.30;73.50
1716;DHT22;855;48.824;9.220;2023-12-29T12:32:24;14.20;73.90
1716;DHT22;855;48.824;9.220;2023-12-29T12:37:21;14.30;73.70
1716;DHT22;855;48.824;9.220;2023-12-29T12:39:48;14.30;73.10
1716;DHT22;855;48.824;9.220;2023-12-29T12:42:15;14.30;73.00
1716;DHT22;855;48.824;9.220;2023-12-29T12:44:48;14.40;72.90
1716;DHT22;855;48.824;9.220;2023-12-29T12:47:19;14.40;72.70
1716;DHT22;855;48.824;9.220;2023-12-29T12:49:49;14.40;72.60
1716;DHT22;855;48.824;9.220;2023-12-29T12:52:16;14.40;71.90
1716;DHT22;855;48.824;9.220;2023-12-29T12:54:45;14.50;71.80
1716;DHT22;855;48.824;9.220;2023-12-29T12:57:13;14.40;72.20
1716;DHT22;855;48.824;9.220;2023-12-29T12:59:39;14.40;71.30
1716;DHT22;855;48.824;9.220;2023-12-29T13:02:08;14.50;71.80
1716;DHT22;855;48.824;9.220;2023-12-29T13:04:35;14.50;71.30
1716;DHT22;855;48.824;9.220;2023-12-29T13:07:06;14.50;70.60
1716;DHT22;855;48.824;9.220;2023-12-29T13:09:35;14.40;70.90
1716;DHT22;855;48.824;9.220;2023-12-29T13:12:11;14.40;71.40
1716;DHT22;855;48.824;9.220;2023-12-29T13:14:39;14.30;71.60
1716;DHT22;855;48.824;9.220;2023-12-29T13:17:08;14.30;71.00
1716;DHT22;855;48.824;9.220;2023-12-29T13:19:36;14.30;71.40
1716;DHT22;855;48.824;9.220;2023-12-29T13:22:06;14.20;71.40
1716;DHT22;855;48.824;9.220;2023-12-29T13:24:33;14.20;70.90
1716;DHT22;855;48.824;9.220;2023-12-29T13:27:04;14.20;73.00
1716;DHT22;855;48.824;9.220;2023-12-29T13:29:35;14.30;74.10
1716;DHT22;855;48.824;9.220;2023-12-29T13:32:05;14.40;72.50
1716;DHT22;855;48.824;9.220;2023-12-29T13:34:38;14.40;72.30
1716;DHT22;855;48.824;9.220;2023-12-29T13:37:15;14.50;71.80
1716;DHT22;855;48.824;9.220;2023-12-29T13:39:50;14.60;71.60
1716;DHT22;855;48.824;9.220;2023-12-29T13:42:19;14.50;70.00
1716;DHT22;855;48.824;9.220;2023-12-29T13:44:50;14.50;71.20
1716;DHT22;855;48.824;9.220;2023-12-29T13:47:17;14.50;70.10
1716;DHT22;855;48.824;9.220;2023-12-29T13:49:46;14.40;70.10
1716;DHT22;855;48.824;9.220;2023-12-29T13:52:14;14.30;70.20
1716;DHT22;855;48.824;9.220;2023-12-29T13:54:43;14.20;70.10
1716;DHT22;855;48.824;9.220;2023-12-29T13:59:37;14.20;70.50
1716;DHT22;855;48.824;9.220;2023-12-29T14:02:20;14.20;70.50
1716;DHT22;855;48.824;9.220;2023-12-29T14:05:05;14.20;70.60
1716;DHT22;855;48.824;9.220;2023-12-29T14:07:36;14.30;70.80
1716;DHT22;855;48.824;9.220;2023-12-29T14:10:04;14.40;70.50
1716;DHT22;855;48.824;9.220;2023-12-29T14:15:03;14.40;68.90
1716;DHT22;855;48.824;9.220;2023-12-29T14:17:31;14.40;69.80
1716;DHT22;855;48.824;9.220;2023-12-29T14:19:59;14.40;69.40
1716;DHT22;855;48.824;9.220;2023-12-29T14:22:31;14.40;69.40
1716;DHT22;855;48.824;9.220;2023-12-29T14:25:02;14.40;69.30
1716;DHT22;855;48.824;9.220;2023-12-29T14:32:24;14.40;69.20
1716;DHT22;855;48.824;9.220;2023-12-29T14:34:52;14.40;69.30
1716;DHT22;855;48.824;9.220;2023-12-29T14:37:22;14.20;69.40
1716;DHT22;855;48.824;9.220;2023-12-29T14:39:49;14.20;69.20
1716;DHT22;855;48.824;9.220;2023-12-29T14:42:16;14.00;69.20
1716;DHT22;855;48.824;9.220;2023-12-29T14:44:45;14.10;69.30
1716;DHT22;855;48.824;9.220;2023-12-29T14:47:13;14.00;68.60
1716;DHT22;855;48.824;9.220;2023-12-29T14:49:40;13.90;69.20
1716;DHT22;855;48.824;9.220;2023-12-29T14:52:09;13.90;68.90
1716;DHT22;855;48.824;9.220;2023-12-29T14:54:38;13.90;69.00
1716;DHT22;855;48.824;9.220;2023-12-29T14:57:05;14.00;68.60
1716;DHT22;855;48.824;9.220;2023-12-29T15:02:02;14.00;68.60
1716;DHT22;855;48.824;9.220;2023-12-29T15:04:33;14.00;68.80
1716;DHT22;855;48.824;9.220;2023-12-29T15:09:28;13.90;68.80
1716;DHT22;855;48.824;9.220;2023-12-29T15:26:39;13.60;69.20
1716;DHT22;855;48.824;9.220;2023-12-29T15:31:33;13.60;68.90
1716;DHT22;855;48.824;9.220;2023-12-29T15:43:52;13.30;68.50
1716;DHT22;855;48.824;9.220;2023-12-29T15:46:19;13.20;69.00
1716;DHT22;855;48.824;9.220;2023-12-29T15:53:43;13.30;70.20
1716;DHT22;855;48.824;9.220;2023-12-29T15:56:16;13.30;70.20
1716;DHT22;855;48.824;9.220;2023-12-29T15:58:44;13.30;69.70
1716;DHT22;855;48.824;9.220;2023-12-29T16:01:19;13.30;69.70
1716;DHT22;855;48.824;9.220;2023-12-29T16:03:46;13.30;70.50
1716;DHT22;855;48.824;9.220;2023-12-29T16:06:18;13.30;70.00
1716;DHT22;855;48.824;9.220;2023-12-29T16:08:45;13.20;69.70
1716;DHT22;855;48.824;9.220;2023-12-29T16:11:18;13.20;70.20
1716;DHT22;855;48.824;9.220;2023-12-29T16:16:14;13.10;68.60
1716;DHT22;855;48.824;9.220;2023-12-29T16:26:05;12.90;67.70
1716;DHT22;855;48.824;9.220;2023-12-29T16:28:32;12.90;67.70
1716;DHT22;855;48.824;9.220;2023-12-29T16:31:02;12.90;67.70
1716;DHT22;855;48.824;9.220;2023-12-29T16:33:31;12.90;67.50
1716;DHT22;855;48.824;9.220;2023-12-29T16:35:59;13.00;67.20
1716;DHT22;855;48.824;9.220;2023-12-29T16:45:48;12.90;66.40
1716;DHT22;855;48.824;9.220;2023-12-29T16:48:15;12.90;66.40
1716;DHT22;855;48.824;9.220;2023-12-29T16:50:43;12.80;67.20
1716;DHT22;855;48.824;9.220;2023-12-29T16:53:10;12.90;66.70
1716;DHT22;855;48.824;9.220;2023-12-29T16:58:04;12.80;67.10
1716;DHT22;855;48.824;9.220;2023-12-29T17:00:31;12.70;66.90
1716;DHT22;855;48.824;9.220;2023-12-29T17:07:54;12.60;67.10
1716;DHT22;855;48.824;9.220;2023-12-29T17:17:45;12.60;67.10
1716;DHT22;855;48.824;9.220;2023-12-29T17:20:12;12.60;67.20
1716;DHT22;855;48.824;9.220;2023-12-29T17:25:10;12.60;67.30
1716;DHT22;855;48.824;9.220;2023-12-29T17:30:04;12.50;67.70
1716;DHT22;855;48.824;9.220;2023-12-29T17:32:31;12.40;68.00
1716;DHT22;855;48.824;9.220;2023-12-29T17:42:26;12.20;69.30
1716;DHT22;855;48.824;9.220;2023-12-29T17:44:52;12.10;69.60
1716;DHT22;855;48.824;9.220;2023-12-29T17:47:20;12.10;69.80
1716;DHT22;855;48.824;9.220;2023-12-29T17:49:47;12.00;70.10
1716;DHT22;855;48.824;9.220;2023-12-29T17:52:14;11.90;70.60
1716;DHT22;855;48.824;9.220;2023-12-29T17:54:41;11.90;70.90
1716;DHT22;855;48.824;9.220;2023-12-29T17:59:36;11.90;70.80
1716;DHT22;855;48.824;9.220;2023-12-29T18:02:03;11.90;70.80
1716;DHT22;855;48.824;9.220;2023-12-29T18:16:48;11.80;71.80
1716;DHT22;855;48.824;9.220;2023-12-29T18:19:14;11.70;72.10
1716;DHT22;855;48.824;9.220;2023-12-29T18:31:41;11.60;72.90
1716;DHT22;855;48.824;9.220;2023-12-29T18:34:09;11.50;73.10
1716;DHT22;855;48.824;9.220;2023-12-29T18:36:36;11.40;73.40
1716;DHT22;855;48.824;9.220;2023-12-29T18:41:31;11.30;74.10
1716;DHT22;855;48.824;9.220;2023-12-29T18:43:57;11.40;74.10
1716;DHT22;855;48.824;9.220;2023-12-29T18:46:24;11.30;74.20
1716;DHT22;855;48.824;9.220;2023-12-29T18:48:51;11.30;74.30
1716;DHT22;855;48.824;9.220;2023-12-29T18:51:19;11.30;74.50
1716;DHT22;855;48.824;9.220;2023-12-29T18:53:46;11.30;74.60
1716;DHT22;855;48.824;9.220;2023-12-29T18:56:14;11.30;74.50
1716;DHT22;855;48.824;9.220;2023-12-29T19:06:02;11.20;74.60
1716;DHT22;855;48.824;9.220;2023-12-29T19:08:31;11.20;74.70
1716;DHT22;855;48.824;9.220;2023-12-29T19:10:58;11.10;75.30
1716;DHT22;855;48.824;9.220;2023-12-29T19:20:46;10.90;76.70
1716;DHT22;855;48.824;9.220;2023-12-29T19:25:42;10.70;77.50
1716;DHT22;855;48.824;9.220;2023-12-29T19:28:09;10.70;77.60
1716;DHT22;855;48.824;9.220;2023-12-29T19:33:03;10.70;77.90
1716;DHT22;855;48.824;9.220;2023-12-29T19:35:30;10.70;77.90
1716;DHT22;855;48.824;9.220;2023-12-29T19:42:52;10.50;78.40
1716;DHT22;855;48.824;9.220;2023-12-29T19:50:13;10.30;79.20
1716;DHT22;855;48.824;9.220;2023-12-29T19:52:42;10.20;79.90
1716;DHT22;855;48.824;9.220;2023-12-29T19:55:09;10.10;80.10
1716;DHT22;855;48.824;9.220;2023-12-29T19:57:36;10.00;80.80
1716;DHT22;855;48.824;9.220;2023-12-29T20:00:06;9.90;81.30
1716;DHT22;855;48.824;9.220;2023-12-29T20:02:34;10.00;81.50
1716;DHT22;855;48.824;9.220;2023-12-29T20:05:02;10.00;81.70
1716;DHT22;855;48.824;9.220;2023-12-29T20:09:56;9.90;83.00
1716;DHT22;855;48.824;9.220;2023-12-29T20:17:22;9.80;83.30
1716;DHT22;855;48.824;9.220;2023-12-29T20:19:49;9.80;83.60
1716;DHT22;855;48.824;9.220;2023-12-29T20:27:13;10.10;81.60
1716;DHT22;855;48.824;9.220;2023-12-29T20:34:35;10.30;79.60
1716;DHT22;855;48.824;9.220;2023-12-29T20:39:28;10.40;78.00
1716;DHT22;855;48.824;9.220;2023-12-29T20:41:55;10.50;77.80
1716;DHT22;855;48.824;9.220;2023-12-29T20:46:49;10.60;76.80
1716;DHT22;855;48.824;9.220;2023-12-29T20:51:45;10.70;76.60
1716;DHT22;855;48.824;9.220;2023-12-29T20:54:13;10.70;76.30
1716;DHT22;855;48.824;9.220;2023-12-29T20:56:41;10.70;75.80
1716;DHT22;855;48.824;9.220;2023-12-29T21:04:04;10.70;75.90
1716;DHT22;855;48.824;9.220;2023-12-29T21:06:34;10.70;75.60
1716;DHT22;855;48.824;9.220;2023-12-29T21:09:03;10.70;75.50
1716;DHT22;855;48.824;9.220;2023-12-29T21:13:57;10.80;75.40
1716;DHT22;855;48.824;9.220;2023-12-29T21:21:20;10.90;74.60
1716;DHT22;855;48.824;9.220;2023-12-29T21:23:48;10.90;74.60
1716;DHT22;855;48.824;9.220;2023-12-29T21:26:19;10.80;74.90
1716;DHT22;855;48.824;9.220;2023-12-29T21:28:46;10.90;74.90
1716;DHT22;855;48.824;9.220;2023-12-29T21:31:14;11.00;74.60
1716;DHT22;855;48.824;9.220;2023-12-29T21:33:41;11.00;74.30
1716;DHT22;855;48.824;9.220;2023-12-29T21:36:19;11.00;74.60
1716;DHT22;855;48.824;9.220;2023-12-29T21:43:41;11.10;74.10
1716;DHT22;855;48.824;9.220;2023-12-29T21:48:35;11.10;73.70
1716;DHT22;855;48.824;9.220;2023-12-29T21:51:03;11.10;73.80
1716;DHT22;855;48.824;9.220;2023-12-29T21:53:30;11.00;74.50
1716;DHT22;855;48.824;9.220;2023-12-29T21:55:58;11.00;74.50
1716;DHT22;855;48.824;9.220;2023-12-29T21:58:28;11.00;74.30
1716;DHT22;855;48.824;9.220;2023-12-29T22:01:26;11.00;74.30
1716;DHT22;855;48.824;9.220;2023-12-29T22:03:54;11.00;74.50
1716;DHT22;855;48.824;9.220;2023-12-29T22:06:22;10.90;74.70
1716;DHT22;855;48.824;9.220;2023-12-29T22:08:49;10.90;75.00
1716;DHT22;855;48.824;9.220;2023-12-29T22:11:16;10.70;75.60
1716;DHT22;855;48.824;9.220;2023-12-29T22:13:43;10.70;75.90
1716;DHT22;855;48.824;9.220;2023-12-29T22:16:12;10.70;76.20
1716;DHT22;855;48.824;9.220;2023-12-29T22:18:39;10.70;76.40
1716;DHT22;855;48.824;9.220;2023-12-29T22:26:01;10.40;78.40
1716;DHT22;855;48.824;9.220;2023-12-29T22:30:55;10.40;79.00
1716;DHT22;855;48.824;9.220;2023-12-29T22:33:23;10.40;79.00
1716;DHT22;855;48.824;9.220;2023-12-29T22:35:50;10.40;79.20
1716;DHT22;855;48.824;9.220;2023-12-29T22:40:44;10.30;80.10
1716;DHT22;855;48.824;9.220;2023-12-29T22:43:11;10.40;79.90
1716;DHT22;855;48.824;9.220;2023-12-29T22:45:42;10.40;80.00
1716;DHT22;855;48.824;9.220;2023-12-29T22:50:37;10.30;80.70
1716;DHT22;855;48.824;9.220;2023-12-29T22:55:31;10.30;81.30
1716;DHT22;855;48.824;9.220;2023-12-29T23:02:54;10.20;81.90
1716;DHT22;855;48.824;9.220;2023-12-29T23:07:49;10.20;82.10
1716;DHT22;855;48.824;9.220;2023-12-29T23:12:43;10.20;82.00
1716;DHT22;855;48.824;9.220;2023-12-29T23:15:10;10.20;82.00
1716;DHT22;855;48.824;9.220;2023-12-29T23:17:39;10.20;82.10
1716;DHT22;855;48.824;9.220;2023-12-29T23:20:07;10.20;82.10
1716;DHT22;855;48.824;9.220;2023-12-29T23:25:03;10.20;82.50
1716;DHT22;855;48.824;9.220;2023-12-29T23:27:30;10.10;82.90
1716;DHT22;855;48.824;9.220;2023-12-29T23:32:24;10.00;83.30
1716;DHT22;855;48.824;9.220;2023-12-29T23:39:45;9.90;84.00
1716;DHT22;855;48.824;9.220;2023-12-29T23:42:14;9.80;84.40
1716;DHT22;855;48.824;9.220;2023-12-29T23:44:40;9.80;84.60
1716;DHT22;855;48.824;9.220;2023-12-29T23:47:07;9.90;84.50
1716;DHT22;855;48.824;9.220;2023-12-29T23:54:28;10.10;83.80
1716;DHT22;855;48.824;9.220;2023-12-29T23:56:55;10.10;84.00
1716;DHT22;855;48.824;9.220;2023-12-29T23:59:23;10.10;84.10
